sensor_id;sensor_type;location;lat;lon;timestamp;temperature;humidity
58849;DHT22;44619;51.022;6.818;2023-02-28T18:00:49;14.20;34.10
58849;DHT22;44619;51.022;6.818;2023-02-28T18:03:21;13.90;36.60
58849;DHT22;44619;51.022;6.818;2023-02-28T18:05:48;13.50;37.30
58849;DHT22;44619;51.022;6.818;2023-02-28T18:08:14;13.10;37.90
58849;DHT22;44619;51.022;6.818;2023-02-28T18:10:40;12.70;38.50
58849;DHT22;44619;51.022;6.818;2023-02-28T18:13:06;12.30;39.30
58849;DHT22;44619;51.022;6.818;2023-02-28T18:15:32;12.00;39.70
58849;DHT22;44619;51.022;6.818;2023-02-28T18:17:58;11.70;40.20
58849;DHT22;44619;51.022;6.818;2023-02-28T18:22:49;11.20;40.40
58849;DHT22;44619;51.022;6.818;2023-02-28T18:25:15;11.20;41.60
58849;DHT22;44619;51.022;6.818;2023-02-28T18:27:42;11.00;41.00
58849;DHT22;44619;51.022;6.818;2023-02-28T18:30:27;10.90;41.10
58849;DHT22;44619;51.022;6.818;2023-02-28T18:32:54;10.80;41.10
58849;DHT22;44619;51.022;6.818;2023-02-28T18:35:21;10.60;41.20
58849;DHT22;44619;51.022;6.818;2023-02-28T18:37:59;10.60;41.40
58849;DHT22;44619;51.022;6.818;2023-02-28T18:40:25;10.50;41.40
58849;DHT22;44619;51.022;6.818;2023-02-28T18:42:51;10.30;41.50
58849;DHT22;44619;51.022;6.818;2023-02-28T18:45:16;10.20;41.70
58849;DHT22;44619;51.022;6.818;2023-02-28T18:47:42;10.10;41.90
58849;DHT22;44619;51.022;6.818;2023-02-28T18:50:07;10.00;41.90
58849;DHT22;44619;51.022;6.818;2023-02-28T18:52:33;9.80;42.00
58849;DHT22;44619;51.022;6.818;2023-02-28T18:54:59;9.70;42.00
58849;DHT22;44619;51.022;6.818;2023-02-28T18:57:24;9.60;42.00
58849;DHT22;44619;51.022;6.818;2023-02-28T18:59:50;9.50;41.90
58849;DHT22;44619;51.022;6.818;2023-02-28T19:02:15;9.40;42.00
58849;DHT22;44619;51.022;6.818;2023-02-28T19:04:41;9.30;42.20
58849;DHT22;44619;51.022;6.818;2023-02-28T19:07:07;9.10;42.40
58849;DHT22;44619;51.022;6.818;2023-02-28T19:09:32;9.00;42.50
58849;DHT22;44619;51.022;6.818;2023-02-28T19:11:58;9.00;42.50
58849;DHT22;44619;51.022;6.818;2023-02-28T19:14:27;8.90;42.60
58849;DHT22;44619;51.022;6.818;2023-02-28T19:16:52;8.80;45.50
58849;DHT22;44619;51.022;6.818;2023-02-28T19:19:18;8.70;42.80
58849;DHT22;44619;51.022;6.818;2023-02-28T19:24:09;8.40;42.60
58849;DHT22;44619;51.022;6.818;2023-02-28T19:26:34;8.30;43.20
58849;DHT22;44619;51.022;6.818;2023-02-28T19:29:01;8.30;43.10
58849;DHT22;44619;51.022;6.818;2023-02-28T19:31:27;8.20;43.10
58849;DHT22;44619;51.022;6.818;2023-02-28T19:33:53;8.10;43.20
58849;DHT22;44619;51.022;6.818;2023-02-28T19:36:18;8.00;43.20
58849;DHT22;44619;51.022;6.818;2023-02-28T19:38:44;7.90;43.40
58849;DHT22;44619;51.022;6.818;2023-02-28T19:41:10;7.70;43.60
58849;DHT22;44619;51.022;6.818;2023-02-28T19:43:36;7.70;43.50
58849;DHT22;44619;51.022;6.818;2023-02-28T19:46:01;7.50;43.50
58849;DHT22;44619;51.022;6.818;2023-02-28T19:48:27;7.30;43.70
58849;DHT22;44619;51.022;6.818;2023-02-28T19:50:57;7.30;44.00
58849;DHT22;44619;51.022;6.818;2023-02-28T19:53:24;7.00;44.20
58849;DHT22;44619;51.022;6.818;2023-02-28T19:55:49;7.10;44.30
58849;DHT22;44619;51.022;6.818;2023-02-28T19:58:17;7.00;44.00
58849;DHT22;44619;51.022;6.818;2023-02-28T20:00:43;6.90;44.20
58849;DHT22;44619;51.022;6.818;2023-02-28T20:03:14;7.00;44.10
58849;DHT22;44619;51.022;6.818;2023-02-28T20:05:39;6.80;44.10
58849;DHT22;44619;51.022;6.818;2023-02-28T20:08:06;6.80;44.00
58849;DHT22;44619;51.022;6.818;2023-02-28T20:10:32;6.80;44.20
58849;DHT22;44619;51.022;6.818;2023-02-28T20:15:23;6.70;43.70
58849;DHT22;44619;51.022;6.818;2023-02-28T20:17:49;6.60;44.40
58849;DHT22;44619;51.022;6.818;2023-02-28T20:20:15;6.60;44.30
58849;DHT22;44619;51.022;6.818;2023-02-28T20:22:40;6.50;44.40
58849;DHT22;44619;51.022;6.818;2023-02-28T20:25:06;6.40;44.30
58849;DHT22;44619;51.022;6.818;2023-02-28T20:27:33;6.30;44.60
58849;DHT22;44619;51.022;6.818;2023-02-28T20:30:02;6.20;44.70
58849;DHT22;44619;51.022;6.818;2023-02-28T20:32:28;6.10;44.60
58849;DHT22;44619;51.022;6.818;2023-02-28T20:34:59;6.10;44.70
58849;DHT22;44619;51.022;6.818;2023-02-28T20:37:25;6.00;44.70
58849;DHT22;44619;51.022;6.818;2023-02-28T20:39:54;6.00;44.50
58849;DHT22;44619;51.022;6.818;2023-02-28T20:42:20;5.90;44.60
58849;DHT22;44619;51.022;6.818;2023-02-28T20:44:45;5.80;44.70
58849;DHT22;44619;51.022;6.818;2023-02-28T20:47:11;5.70;44.70
58849;DHT22;44619;51.022;6.818;2023-02-28T20:49:37;5.60;44.90
58849;DHT22;44619;51.022;6.818;2023-02-28T20:52:02;5.60;45.10
58849;DHT22;44619;51.022;6.818;2023-02-28T20:54:28;5.50;45.10
58849;DHT22;44619;51.022;6.818;2023-02-28T20:56:54;5.50;45.10
58849;DHT22;44619;51.022;6.818;2023-02-28T20:59:23;5.50;45.10
58849;DHT22;44619;51.022;6.818;2023-02-28T21:01:48;5.40;45.30
58849;DHT22;44619;51.022;6.818;2023-02-28T21:04:14;5.30;45.20
58849;DHT22;44619;51.022;6.818;2023-02-28T21:06:41;5.30;45.20
58849;DHT22;44619;51.022;6.818;2023-02-28T21:09:08;5.30;45.30
58849;DHT22;44619;51.022;6.818;2023-02-28T21:11:34;5.20;45.30
58849;DHT22;44619;51.022;6.818;2023-02-28T21:14:04;5.20;45.40
58849;DHT22;44619;51.022;6.818;2023-02-28T21:16:34;5.10;45.60
58849;DHT22;44619;51.022;6.818;2023-02-28T21:18:59;5.00;45.50
58849;DHT22;44619;51.022;6.818;2023-02-28T21:21:33;5.10;45.50
58849;DHT22;44619;51.022;6.818;2023-02-28T21:23:59;5.00;45.30
58849;DHT22;44619;51.022;6.818;2023-02-28T21:26:24;4.90;45.60
58849;DHT22;44619;51.022;6.818;2023-02-28T21:28:57;4.80;46.20
58849;DHT22;44619;51.022;6.818;2023-02-28T21:31:23;4.80;45.70
58849;DHT22;44619;51.022;6.818;2023-02-28T21:33:50;4.70;45.80
58849;DHT22;44619;51.022;6.818;2023-02-28T21:36:18;4.70;45.80
58849;DHT22;44619;51.022;6.818;2023-02-28T21:38:45;4.70;45.80
58849;DHT22;44619;51.022;6.818;2023-02-28T21:41:11;4.60;46.00
58849;DHT22;44619;51.022;6.818;2023-02-28T21:43:43;4.60;45.90
58849;DHT22;44619;51.022;6.818;2023-02-28T21:46:14;4.50;45.90
58849;DHT22;44619;51.022;6.818;2023-02-28T21:48:40;4.40;46.10
58849;DHT22;44619;51.022;6.818;2023-02-28T21:51:12;4.50;45.90
58849;DHT22;44619;51.022;6.818;2023-02-28T21:53:38;4.40;46.10
58849;DHT22;44619;51.022;6.818;2023-02-28T21:56:08;4.30;46.40
58849;DHT22;44619;51.022;6.818;2023-02-28T21:58:36;4.20;46.30
58849;DHT22;44619;51.022;6.818;2023-02-28T22:03:31;4.10;46.50
58849;DHT22;44619;51.022;6.818;2023-02-28T22:05:56;4.00;46.80
58849;DHT22;44619;51.022;6.818;2023-02-28T22:08:22;4.10;46.90
58849;DHT22;44619;51.022;6.818;2023-02-28T22:10:48;4.00;46.80
58849;DHT22;44619;51.022;6.818;2023-02-28T22:13:13;4.00;46.80
58849;DHT22;44619;51.022;6.818;2023-02-28T22:15:39;3.80;47.00
58849;DHT22;44619;51.022;6.818;2023-02-28T22:18:04;3.90;47.00
58849;DHT22;44619;51.022;6.818;2023-02-28T22:20:30;3.80;46.80
58849;DHT22;44619;51.022;6.818;2023-02-28T22:22:56;3.80;47.00
58849;DHT22;44619;51.022;6.818;2023-02-28T22:25:21;3.80;46.90
58849;DHT22;44619;51.022;6.818;2023-02-28T22:27:47;3.80;47.00
58849;DHT22;44619;51.022;6.818;2023-02-28T22:30:12;3.70;47.00
58849;DHT22;44619;51.022;6.818;2023-02-28T22:32:38;3.70;46.90
58849;DHT22;44619;51.022;6.818;2023-02-28T22:35:04;3.60;47.10
58849;DHT22;44619;51.022;6.818;2023-02-28T22:37:30;3.60;47.20
58849;DHT22;44619;51.022;6.818;2023-02-28T22:39:55;3.60;47.10
58849;DHT22;44619;51.022;6.818;2023-02-28T22:42:24;3.50;47.10
58849;DHT22;44619;51.022;6.818;2023-02-28T22:44:50;3.50;47.30
58849;DHT22;44619;51.022;6.818;2023-02-28T22:47:15;3.40;47.20
58849;DHT22;44619;51.022;6.818;2023-02-28T22:49:41;3.40;47.40
58849;DHT22;44619;51.022;6.818;2023-02-28T22:52:07;3.20;47.40
58849;DHT22;44619;51.022;6.818;2023-02-28T22:54:32;3.30;47.30
58849;DHT22;44619;51.022;6.818;2023-02-28T22:56:58;3.30;47.20
58849;DHT22;44619;51.022;6.818;2023-02-28T22:59:24;3.30;47.10
58849;DHT22;44619;51.022;6.818;2023-02-28T23:01:49;3.10;47.30
58849;DHT22;44619;51.022;6.818;2023-02-28T23:04:15;3.20;47.30
58849;DHT22;44619;51.022;6.818;2023-02-28T23:06:41;3.10;47.30
58849;DHT22;44619;51.022;6.818;2023-02-28T23:09:08;3.00;47.60
58849;DHT22;44619;51.022;6.818;2023-02-28T23:11:38;3.00;47.50
58849;DHT22;44619;51.022;6.818;2023-02-28T23:14:03;3.00;47.40
58849;DHT22;44619;51.022;6.818;2023-02-28T23:16:43;3.00;47.30
58849;DHT22;44619;51.022;6.818;2023-02-28T23:19:21;3.00;47.10
58849;DHT22;44619;51.022;6.818;2023-02-28T23:21:47;2.90;47.30
58849;DHT22;44619;51.022;6.818;2023-02-28T23:24:14;2.80;47.60
58849;DHT22;44619;51.022;6.818;2023-02-28T23:26:41;2.90;47.60
58849;DHT22;44619;51.022;6.818;2023-02-28T23:29:08;2.80;47.40
58849;DHT22;44619;51.022;6.818;2023-02-28T23:31:34;2.70;47.60
58849;DHT22;44619;51.022;6.818;2023-02-28T23:33:59;2.60;47.80
58849;DHT22;44619;51.022;6.818;2023-02-28T23:36:25;2.60;47.80
58849;DHT22;44619;51.022;6.818;2023-02-28T23:38:51;2.60;47.80
58849;DHT22;44619;51.022;6.818;2023-02-28T23:41:17;2.60;47.90
58849;DHT22;44619;51.022;6.818;2023-02-28T23:43:43;2.50;48.00
58849;DHT22;44619;51.022;6.818;2023-02-28T23:46:10;2.40;48.00
58849;DHT22;44619;51.022;6.818;2023-02-28T23:48:36;2.50;48.00
58849;DHT22;44619;51.022;6.818;2023-02-28T23:51:07;2.40;47.80
58849;DHT22;44619;51.022;6.818;2023-02-28T23:53:33;2.40;48.20
58849;DHT22;44619;51.022;6.818;2023-02-28T23:55:59;2.30;47.90
58849;DHT22;44619;51.022;6.818;2023-02-28T23:58:26;2.30;47.90
